createdAt,value
2018-09-08T00:01:47.786Z,11.44
2018-09-08T00:04:16.243Z,11.37
2018-09-08T00:06:44.796Z,11.47
2018-09-08T00:09:13.375Z,11.54
2018-09-08T00:11:41.895Z,11.53
2018-09-08T00:14:10.432Z,11.54
2018-09-08T00:16:44.223Z,11.67
2018-09-08T00:19:18.121Z,11.77
2018-09-08T00:21:51.911Z,11.55
2018-09-08T00:24:26.391Z,11.33
2018-09-08T00:26:54.106Z,11.08
2018-09-08T00:29:31.004Z,10.95
2018-09-08T00:32:00.067Z,10.88
2018-09-08T00:34:29.340Z,11.22
2018-09-08T00:36:59.027Z,10.91
2018-09-08T00:39:27.570Z,10.71
2018-09-08T00:41:56.116Z,10.79
2018-09-08T00:44:24.837Z,10.88
2018-09-08T00:46:54.010Z,11.00
2018-09-08T00:49:22.552Z,11.10
2018-09-08T00:51:52.252Z,10.95
2018-09-08T00:54:20.739Z,11.08
2018-09-08T00:56:49.242Z,11.16
2018-09-08T00:59:17.789Z,11.08
2018-09-08T01:01:46.906Z,10.83
2018-09-08T01:04:15.378Z,10.78
2018-09-08T01:06:44.007Z,10.57
2018-09-08T01:09:12.447Z,10.72
2018-09-08T01:11:41.929Z,10.61
2018-09-08T01:14:10.609Z,10.57
2018-09-08T01:16:39.206Z,10.27
2018-09-08T01:19:07.843Z,10.42
2018-09-08T01:21:36.557Z,10.57
2018-09-08T01:24:05.043Z,10.52
2018-09-08T01:26:33.581Z,10.55
2018-09-08T01:29:02.111Z,10.40
2018-09-08T01:31:30.631Z,10.37
2018-09-08T01:33:59.783Z,10.39
2018-09-08T01:36:28.311Z,10.34
2018-09-08T01:38:56.852Z,10.52
2018-09-08T01:41:25.478Z,10.58
2018-09-08T01:43:54.052Z,10.60
2018-09-08T01:46:22.506Z,10.74
2018-09-08T01:48:51.026Z,10.75
2018-09-08T01:51:20.189Z,10.71
2018-09-08T01:53:48.782Z,10.72
2018-09-08T01:56:17.329Z,10.60
2018-09-08T01:58:45.872Z,10.60
2018-09-08T02:01:15.342Z,10.35
2018-09-08T02:03:43.769Z,10.02
2018-09-08T02:06:12.234Z,9.88
2018-09-08T02:08:41.122Z,9.70
2018-09-08T02:11:09.608Z,9.79
2018-09-08T02:13:38.113Z,9.68
2018-09-08T02:16:06.717Z,9.30
2018-09-08T02:18:35.243Z,9.38
2018-09-08T02:21:04.610Z,9.61
2018-09-08T02:23:33.228Z,9.73
2018-09-08T02:26:02.729Z,6.58
2018-09-08T02:28:32.549Z,9.56
2018-09-08T02:31:01.503Z,9.83
2018-09-08T02:33:30.014Z,9.66
2018-09-08T02:35:58.584Z,9.54
2018-09-08T02:38:27.228Z,9.71
2018-09-08T02:40:55.755Z,9.51
2018-09-08T02:43:25.254Z,9.54
2018-09-08T02:45:53.848Z,9.44
2018-09-08T02:48:22.397Z,9.38
2018-09-08T02:50:49.670Z,9.72
2018-09-08T02:53:16.993Z,9.60
2018-09-08T02:55:44.278Z,9.89
2018-09-08T02:58:12.054Z,9.58
2018-09-08T03:00:39.480Z,9.52
2018-09-08T03:03:06.815Z,9.87
2018-09-08T03:05:34.114Z,9.57
2018-09-08T03:08:01.465Z,9.46
2018-09-08T03:10:28.992Z,9.18
2018-09-08T03:12:56.315Z,9.16
2018-09-08T03:15:24.719Z,9.42
2018-09-08T03:17:52.013Z,9.16
2018-09-08T03:20:19.285Z,8.96
2018-09-08T03:22:46.594Z,9.06
2018-09-08T03:25:13.882Z,9.26
2018-09-08T03:27:41.223Z,9.18
2018-09-08T03:30:08.478Z,9.41
2018-09-08T03:32:35.802Z,9.67
2018-09-08T03:35:03.087Z,9.41
2018-09-08T03:37:30.681Z,9.47
2018-09-08T03:39:58.006Z,9.35
2018-09-08T03:42:25.971Z,9.30
2018-09-08T03:44:53.365Z,9.36
2018-09-08T03:47:20.760Z,9.25
2018-09-08T03:49:47.991Z,9.18
2018-09-08T03:52:15.331Z,9.29
2018-09-08T03:54:42.620Z,8.96
2018-09-08T03:57:09.994Z,8.97
2018-09-08T03:59:37.314Z,9.19
2018-09-08T04:02:04.621Z,8.89
2018-09-08T04:04:33.294Z,9.14
2018-09-08T04:07:02.024Z,9.13
2018-09-08T04:09:30.589Z,9.09
2018-09-08T04:11:59.090Z,9.26
2018-09-08T04:14:27.575Z,9.50
2018-09-08T04:16:56.067Z,9.10
2018-09-08T04:19:24.569Z,9.32
2018-09-08T04:21:53.480Z,9.24
2018-09-08T04:24:22.098Z,8.75
2018-09-08T04:26:51.563Z,8.72
2018-09-08T04:29:20.352Z,7.15
2018-09-08T04:31:48.923Z,8.61
2018-09-08T04:34:17.430Z,8.56
2018-09-08T04:36:46.624Z,8.53
2018-09-08T04:39:15.151Z,8.87
2018-09-08T04:41:43.750Z,9.03
2018-09-08T04:44:12.335Z,9.20
2018-09-08T04:46:42.226Z,8.86
2018-09-08T04:49:11.307Z,9.01
2018-09-08T04:51:39.809Z,9.07
2018-09-08T04:54:08.367Z,9.23
2018-09-08T04:56:36.962Z,8.82
2018-09-08T04:59:06.407Z,8.87
2018-09-08T05:01:35.057Z,8.67
2018-09-08T05:04:03.639Z,8.90
2018-09-08T05:06:32.252Z,8.73
2018-09-08T05:09:00.705Z,9.01
2018-09-08T05:11:29.760Z,8.81
2018-09-08T05:13:58.276Z,8.77
2018-09-08T05:16:27.293Z,9.28
2018-09-08T05:18:55.997Z,8.80
2018-09-08T05:21:25.146Z,9.00
2018-09-08T05:23:53.630Z,9.16
2018-09-08T05:26:23.707Z,9.29
2018-09-08T05:28:52.263Z,8.91
2018-09-08T05:31:21.279Z,9.18
2018-09-08T05:33:49.745Z,8.75
2018-09-08T05:36:18.796Z,9.10
2018-09-08T05:38:48.327Z,8.73
2018-09-08T05:41:16.883Z,9.39
2018-09-08T05:43:45.369Z,9.41
2018-09-08T05:46:14.720Z,9.33
2018-09-08T05:48:43.225Z,9.09
2018-09-08T05:51:11.679Z,8.90
2018-09-08T05:53:40.914Z,9.06
2018-09-08T05:56:09.362Z,9.54
2018-09-08T05:58:37.924Z,9.84
2018-09-08T06:01:06.396Z,9.88
2018-09-08T06:03:35.123Z,9.74
2018-09-08T06:06:03.862Z,9.79
2018-09-08T06:08:32.324Z,9.82
2018-09-08T06:11:01.970Z,9.66
2018-09-08T06:13:30.750Z,10.09
2018-09-08T06:15:59.255Z,9.95
2018-09-08T06:18:27.808Z,9.79
2018-09-08T06:20:56.515Z,9.46
2018-09-08T06:23:25.010Z,9.70
2018-09-08T06:25:53.542Z,9.49
2018-09-08T06:28:22.928Z,9.71
2018-09-08T06:30:51.458Z,10.04
2018-09-08T06:33:19.936Z,10.19
2018-09-08T06:35:48.412Z,10.65
2018-09-08T06:38:16.915Z,10.87
2018-09-08T06:40:45.530Z,10.96
2018-09-08T06:43:14.983Z,11.14
2018-09-08T06:45:43.468Z,11.39
2018-09-08T06:48:11.901Z,11.62
2018-09-08T06:50:40.465Z,11.70
2018-09-08T06:53:08.948Z,12.02
2018-09-08T06:55:37.449Z,12.36
2018-09-08T06:58:06.317Z,12.74
2018-09-08T07:00:34.839Z,12.68
2018-09-08T07:03:03.284Z,12.21
2018-09-08T07:05:32.113Z,12.05
2018-09-08T07:08:00.655Z,11.92
2018-09-08T07:10:29.150Z,12.87
2018-09-08T07:12:57.551Z,12.98
2018-09-08T07:15:26.015Z,13.68
2018-09-08T07:17:54.425Z,13.68
2018-09-08T07:20:22.958Z,13.86
2018-09-08T07:22:52.388Z,13.35
2018-09-08T07:25:20.851Z,13.43
2018-09-08T07:27:49.262Z,13.20
2018-09-08T07:30:17.743Z,13.92
2018-09-08T07:32:46.249Z,13.36
2018-09-08T07:35:14.769Z,13.42
2018-09-08T07:37:43.235Z,13.37
2018-09-08T07:40:11.686Z,12.50
2018-09-08T07:42:40.130Z,13.33
2018-09-08T07:45:08.583Z,14.87
2018-09-08T07:47:37.131Z,14.23
2018-09-08T07:50:05.799Z,14.78
2018-09-08T07:52:34.380Z,15.01
2018-09-08T07:55:03.741Z,14.68
2018-09-08T08:02:18.681Z,14.13
2018-09-08T08:04:47.144Z,14.39
2018-09-08T08:07:16.142Z,15.81
2018-09-08T08:09:45.696Z,16.51
2018-09-08T08:12:14.614Z,16.72
2018-09-08T08:14:43.019Z,15.99
2018-09-08T08:17:11.587Z,15.61
2018-09-08T08:19:40.658Z,15.73
2018-09-08T08:22:09.157Z,17.17
2018-09-08T08:24:37.680Z,17.33
2018-09-08T08:27:06.238Z,18.12
2018-09-08T08:29:34.759Z,18.60
2018-09-08T08:32:03.585Z,19.22
2018-09-08T08:34:32.076Z,18.59
2018-09-08T08:37:02.623Z,18.89
2018-09-08T08:39:31.910Z,18.79
2018-09-08T08:42:00.483Z,19.12
2018-09-08T08:44:29.540Z,19.08
2018-09-08T08:46:58.124Z,20.33
2018-09-08T08:49:26.666Z,20.85
2018-09-08T08:52:06.445Z,19.92
2018-09-08T08:54:43.189Z,18.48
2018-09-08T08:57:11.660Z,19.59
2018-09-08T08:59:40.891Z,18.63
2018-09-08T09:02:10.118Z,19.64
2018-09-08T09:04:38.690Z,18.73
2018-09-08T09:07:07.241Z,19.42
2018-09-08T09:09:35.756Z,19.42
2018-09-08T09:12:04.469Z,19.91
2018-09-08T09:14:33.072Z,18.91
2018-09-08T09:17:01.714Z,20.64
2018-09-08T09:19:42.272Z,19.90
2018-09-08T09:22:24.257Z,20.68
2018-09-08T09:24:54.841Z,22.73
2018-09-08T09:27:23.675Z,21.49
2018-09-08T09:29:52.674Z,21.50
2018-09-08T09:32:21.374Z,22.32
2018-09-08T09:34:49.861Z,22.74
2018-09-08T09:37:18.434Z,23.52
2018-09-08T09:39:47.231Z,23.44
2018-09-08T09:42:15.885Z,22.67
2018-09-08T09:44:44.790Z,23.73
2018-09-08T09:47:14.197Z,24.21
2018-09-08T09:49:42.747Z,24.92
2018-09-08T09:52:11.243Z,24.70
2018-09-08T09:54:39.729Z,22.49
2018-09-08T09:57:08.319Z,23.46
2018-09-08T09:59:36.890Z,24.91
2018-09-08T10:02:13.516Z,22.80
2018-09-08T10:04:42.111Z,22.49
2018-09-08T10:07:11.702Z,23.70
2018-09-08T10:09:41.619Z,24.89
2018-09-08T10:12:10.634Z,24.27
2018-09-08T10:14:39.110Z,24.05
2018-09-08T10:17:07.616Z,24.55
2018-09-08T10:19:36.119Z,24.13
2018-09-08T10:22:04.690Z,24.60
2018-09-08T10:24:33.223Z,25.38
2018-09-08T10:27:01.826Z,25.39
2018-09-08T10:29:30.525Z,24.78
2018-09-08T10:31:59.698Z,25.71
2018-09-08T10:34:28.342Z,25.38
2018-09-08T10:36:56.835Z,26.22
2018-09-08T10:39:25.432Z,25.99
2018-09-08T10:41:53.927Z,25.39
2018-09-08T10:44:23.110Z,22.52
2018-09-08T10:46:51.723Z,24.66
2018-09-08T10:49:20.163Z,25.29
2018-09-08T10:51:58.555Z,24.75
2018-09-08T10:54:27.580Z,25.09
2018-09-08T10:56:56.198Z,25.03
2018-09-08T10:59:25.497Z,25.44
2018-09-08T11:01:54.173Z,25.11
2018-09-08T11:04:23.714Z,24.98
2018-09-08T11:06:52.900Z,24.14
2018-09-08T11:09:21.476Z,25.42
2018-09-08T11:11:50.108Z,25.23
2018-09-08T11:14:19.335Z,25.93
2018-09-08T11:16:48.029Z,24.49
2018-09-08T11:19:16.630Z,24.10
2018-09-08T11:21:45.118Z,24.20
2018-09-08T11:24:13.758Z,23.08
2018-09-08T11:26:42.342Z,24.17
2018-09-08T11:29:11.741Z,23.45
2018-09-08T11:31:40.283Z,22.80
2018-09-08T11:34:08.840Z,23.10
2018-09-08T11:36:37.335Z,23.77
2018-09-08T11:39:07.359Z,25.06
2018-09-08T11:41:38.603Z,24.16
2018-09-08T11:44:07.151Z,24.79
2018-09-08T11:46:35.840Z,23.57
2018-09-08T11:49:04.351Z,22.52
2018-09-08T11:51:32.939Z,21.97
2018-09-08T11:54:01.479Z,21.53
2018-09-08T11:56:30.502Z,21.12
2018-09-08T11:58:59.123Z,21.56
2018-09-08T12:01:27.716Z,22.68
2018-09-08T12:03:56.515Z,22.75
2018-09-08T12:06:25.191Z,22.84
2018-09-08T12:08:53.717Z,23.42
2018-09-08T12:11:22.150Z,23.49
2018-09-08T12:13:50.883Z,23.57
2018-09-08T12:16:19.507Z,23.07
2018-09-08T12:18:48.071Z,22.96
2018-09-08T12:21:16.591Z,23.16
2018-09-08T12:23:45.210Z,23.54
2018-09-08T12:26:13.829Z,25.50
2018-09-08T12:28:43.318Z,25.10
2018-09-08T12:31:11.874Z,24.97
2018-09-08T12:33:40.394Z,23.62
2018-09-08T12:36:08.883Z,23.10
2018-09-08T12:38:37.961Z,22.95
2018-09-08T12:41:06.580Z,22.79
2018-09-08T12:43:35.184Z,22.00
2018-09-08T12:46:03.685Z,22.28
2018-09-08T12:48:33.049Z,23.18
2018-09-08T12:51:02.278Z,23.52
2018-09-08T12:53:30.905Z,23.73
2018-09-08T12:55:59.383Z,23.30
2018-09-08T12:58:28.452Z,22.50
2018-09-08T13:00:56.978Z,22.16
2018-09-08T13:03:26.908Z,21.61
2018-09-08T13:05:55.530Z,21.58
2018-09-08T13:08:24.048Z,22.15
2018-09-08T13:10:52.554Z,22.81
2018-09-08T13:13:21.023Z,22.88
2018-09-08T13:15:49.513Z,23.00
2018-09-08T13:18:17.975Z,23.68
2018-09-08T13:20:46.531Z,22.99
2018-09-08T13:23:15.643Z,22.97
2018-09-08T13:25:44.157Z,23.92
2018-09-08T13:28:12.699Z,24.05
2018-09-08T13:30:41.787Z,23.62
2018-09-08T13:33:10.342Z,22.72
2018-09-08T13:35:38.904Z,23.89
2018-09-08T13:38:07.401Z,24.38
2018-09-08T13:40:35.894Z,24.37
2018-09-08T13:43:04.390Z,24.75
2018-09-08T13:45:32.983Z,24.70
2018-09-08T13:48:01.444Z,23.37
2018-09-08T13:50:30.254Z,24.07
2018-09-08T13:52:58.807Z,23.36
2018-09-08T13:55:27.564Z,22.68
2018-09-08T13:57:56.028Z,21.77
2018-09-08T14:00:25.321Z,21.97
2018-09-08T14:02:54.174Z,21.73
2018-09-08T14:05:23.479Z,22.13
2018-09-08T14:07:54.335Z,21.87
2018-09-08T14:10:22.857Z,22.17
2018-09-08T14:12:51.494Z,22.16
2018-09-08T14:15:20.013Z,22.11
2018-09-08T14:17:48.918Z,22.21
2018-09-08T14:20:17.418Z,22.64
2018-09-08T14:22:46.089Z,22.48
2018-09-08T14:25:14.659Z,22.90
2018-09-08T14:27:43.176Z,22.72
2018-09-08T14:30:12.603Z,22.44
2018-09-08T14:32:41.087Z,21.74
2018-09-08T14:35:10.840Z,21.91
2018-09-08T14:37:39.514Z,21.82
2018-09-08T14:40:08.030Z,21.80
2018-09-08T14:42:36.652Z,22.26
2018-09-08T14:45:06.520Z,21.63
2018-09-08T14:47:35.224Z,21.52
2018-09-08T14:50:03.708Z,21.53
2018-09-08T14:52:32.761Z,21.36
2018-09-08T14:55:01.328Z,21.62
2018-09-08T14:57:29.836Z,21.34
2018-09-08T14:59:58.329Z,21.89
2018-09-08T15:02:26.994Z,22.00
2018-09-08T15:04:55.679Z,22.17
2018-09-08T15:07:24.451Z,21.90
2018-09-08T15:09:53.649Z,21.58
2018-09-08T15:12:22.178Z,21.88
2018-09-08T15:14:51.159Z,21.94
2018-09-08T15:17:20.014Z,21.75
2018-09-08T15:19:48.793Z,21.36
2018-09-08T15:22:18.570Z,21.56
2018-09-08T15:24:48.128Z,21.35
2018-09-08T15:27:17.017Z,21.55
2018-09-08T15:29:45.958Z,21.56
2018-09-08T15:32:16.329Z,21.78
2018-09-08T15:34:45.044Z,21.78
2018-09-08T15:37:14.490Z,21.62
2018-09-08T15:39:43.682Z,21.72
2018-09-08T15:42:14.488Z,21.23
2018-09-08T15:44:45.424Z,20.37
2018-09-08T15:47:14.148Z,21.35
2018-09-08T15:49:42.753Z,21.12
2018-09-08T15:52:15.719Z,21.34
2018-09-08T15:54:44.290Z,21.45
2018-09-08T15:57:13.875Z,21.60
2018-09-08T15:59:42.466Z,21.36
2018-09-08T16:02:11.254Z,21.31
2018-09-08T16:04:39.870Z,21.15
2018-09-08T16:07:09.033Z,21.23
2018-09-08T16:09:37.742Z,20.88
2018-09-08T16:12:06.600Z,21.13
2018-09-08T16:14:35.191Z,20.85
2018-09-08T16:17:05.658Z,20.49
2018-09-08T16:19:34.275Z,20.54
2018-09-08T16:22:03.090Z,20.70
2018-09-08T16:24:31.588Z,20.77
2018-09-08T16:27:01.015Z,21.13
2018-09-08T16:29:30.335Z,20.85
2018-09-08T16:31:59.054Z,20.91
2018-09-08T16:34:28.433Z,20.99
2018-09-08T16:36:57.096Z,21.19
2018-09-08T16:39:25.915Z,20.94
2018-09-08T16:41:54.552Z,21.00
2018-09-08T16:44:23.093Z,20.79
2018-09-08T16:46:51.630Z,20.84
2018-09-08T16:49:20.212Z,20.97
2018-09-08T16:51:49.574Z,20.82
2018-09-08T16:54:39.621Z,20.70
2018-09-08T16:57:08.138Z,20.84
2018-09-08T16:59:37.339Z,20.80
2018-09-08T17:02:05.977Z,20.63
2018-09-08T17:04:34.441Z,20.46
2018-09-08T17:07:05.001Z,20.50
2018-09-08T17:09:34.450Z,20.41
2018-09-08T17:12:03.024Z,20.18
2018-09-08T17:14:31.687Z,19.83
2018-09-08T17:17:01.092Z,19.91
2018-09-08T17:19:29.591Z,19.79
2018-09-08T17:22:01.228Z,19.69
2018-09-08T17:24:29.703Z,19.51
2018-09-08T17:26:58.305Z,19.29
2018-09-08T17:29:26.894Z,19.15
2018-09-08T17:31:55.570Z,19.05
2018-09-08T17:34:24.256Z,18.98
2018-09-08T17:36:52.818Z,18.78
2018-09-08T17:39:21.383Z,18.57
2018-09-08T17:41:49.939Z,18.39
2018-09-08T17:44:18.400Z,18.19
2018-09-08T17:46:47.517Z,18.11
2018-09-08T17:49:16.038Z,18.04
2018-09-08T17:51:44.600Z,17.58
2018-09-08T17:54:15.131Z,17.68
2018-09-08T17:56:43.675Z,17.54
2018-09-08T17:59:12.917Z,17.39
2018-09-08T18:01:42.216Z,17.14
2018-09-08T18:04:10.683Z,17.13
2018-09-08T18:06:39.155Z,17.11
2018-09-08T18:09:07.699Z,17.05
2018-09-08T18:11:36.240Z,16.97
2018-09-08T18:14:05.668Z,16.91
2018-09-08T18:16:35.048Z,16.85
2018-09-08T18:19:04.171Z,16.81
2018-09-08T18:21:33.292Z,16.75
2018-09-08T18:24:02.089Z,16.73
2018-09-08T18:26:30.637Z,16.66
2018-09-08T18:29:00.351Z,16.61
2018-09-08T18:31:29.218Z,16.42
2018-09-08T18:33:57.791Z,16.25
2018-09-08T18:36:26.311Z,16.40
2018-09-08T18:38:54.911Z,16.29
2018-09-08T18:41:23.419Z,16.30
2018-09-08T18:43:53.741Z,16.23
2018-09-08T18:46:22.336Z,16.20
2018-09-08T18:48:50.854Z,16.12
2018-09-08T18:51:19.611Z,16.11
2018-09-08T18:53:48.126Z,15.87
2018-09-08T18:56:16.806Z,15.87
2018-09-08T18:58:46.096Z,15.84
2018-09-08T19:01:15.210Z,15.91
2018-09-08T19:03:43.698Z,15.92
2018-09-08T19:06:14.129Z,15.93
2018-09-08T19:08:44.699Z,15.87
2018-09-08T19:11:14.943Z,15.80
2018-09-08T19:13:44.149Z,15.75
2018-09-08T19:16:12.724Z,15.78
2018-09-08T19:18:42.427Z,15.82
2018-09-08T19:21:11.714Z,15.74
2018-09-08T19:23:40.195Z,15.59
2018-09-08T19:26:08.703Z,15.56
2018-09-08T19:28:37.251Z,15.53
2018-09-08T19:31:05.724Z,15.48
2018-09-08T19:33:34.763Z,15.41
2018-09-08T19:36:04.036Z,15.39
2018-09-08T19:38:34.091Z,15.33
2018-09-08T19:41:04.305Z,15.21
2018-09-08T19:43:33.296Z,15.13
2018-09-08T19:46:06.437Z,15.06
2018-09-08T19:48:35.014Z,15.00
2018-09-08T19:51:03.563Z,14.92
2018-09-08T19:53:37.276Z,14.87
2018-09-08T19:56:06.822Z,14.74
2018-09-08T19:59:05.885Z,14.66
2018-09-08T20:01:34.500Z,14.57
2018-09-08T20:04:03.066Z,14.42
2018-09-08T20:06:32.220Z,14.33
2018-09-08T20:09:00.830Z,14.23
2018-09-08T20:11:29.566Z,14.24
2018-09-08T20:13:58.160Z,14.31
2018-09-08T20:16:28.034Z,14.11
2018-09-08T20:18:57.678Z,13.99
2018-09-08T20:21:26.162Z,14.11
2018-09-08T20:23:55.148Z,14.13
2018-09-08T20:26:23.850Z,14.11
2018-09-08T20:28:52.852Z,13.96
2018-09-08T20:31:21.294Z,13.85
2018-09-08T20:33:54.701Z,13.69
2018-09-08T20:36:23.924Z,13.68
2018-09-08T20:38:53.095Z,13.70
2018-09-08T20:41:21.702Z,13.73
2018-09-08T20:43:51.457Z,13.66
2018-09-08T20:46:20.883Z,13.62
2018-09-08T20:48:49.522Z,13.58
2018-09-08T20:51:18.104Z,13.55
2018-09-08T20:53:47.347Z,13.46
2018-09-08T20:56:15.951Z,13.46
2018-09-08T20:58:44.546Z,13.47
2018-09-08T21:01:13.164Z,13.49
2018-09-08T21:03:41.841Z,13.47
2018-09-08T21:06:10.394Z,13.46
2018-09-08T21:13:25.246Z,13.15
2018-09-08T21:15:54.759Z,13.07
2018-09-08T21:18:23.325Z,13.14
2018-09-08T21:20:52.852Z,13.06
2018-09-08T21:23:22.718Z,13.07
2018-09-08T21:25:51.288Z,13.08
2018-09-08T21:28:20.582Z,13.13
2018-09-08T21:30:49.923Z,13.09
2018-09-08T21:33:18.734Z,13.11
2018-09-08T21:35:47.246Z,13.17
2018-09-08T21:38:16.646Z,13.20
2018-09-08T21:40:45.226Z,13.21
2018-09-08T21:43:13.847Z,13.12
2018-09-08T21:45:42.502Z,13.07
2018-09-08T21:48:11.047Z,13.04
2018-09-08T21:50:40.668Z,13.01
2018-09-08T21:53:09.287Z,12.91
2018-09-08T21:55:37.843Z,12.92
2018-09-08T21:58:06.560Z,12.92
2018-09-08T22:00:36.298Z,12.93
2018-09-08T22:03:04.934Z,12.97
2018-09-08T22:05:33.527Z,13.04
2018-09-08T22:08:02.684Z,13.08
2018-09-08T22:10:31.429Z,12.09
2018-09-08T22:13:04.496Z,13.00
2018-09-08T22:15:33.513Z,13.05
2018-09-08T22:18:02.594Z,13.06
2018-09-08T22:20:31.235Z,13.02
2018-09-08T22:22:59.855Z,12.98
2018-09-08T22:25:28.990Z,12.95
2018-09-08T22:27:57.564Z,13.00
2018-09-08T22:30:26.111Z,13.03
2018-09-08T22:32:55.144Z,13.01
2018-09-08T22:35:23.727Z,13.01
2018-09-08T22:37:53.747Z,13.01
2018-09-08T22:40:24.483Z,12.98
2018-09-08T22:42:55.806Z,12.95
2018-09-08T22:45:25.012Z,12.92
2018-09-08T22:47:54.327Z,12.93
2018-09-08T22:50:23.269Z,12.93
2018-09-08T22:52:52.453Z,12.86
2018-09-08T22:55:21.257Z,12.71
2018-09-08T22:57:52.129Z,12.70
2018-09-08T23:00:21.228Z,12.89
2018-09-08T23:02:49.854Z,12.77
2018-09-08T23:05:18.360Z,12.83
2018-09-08T23:07:47.847Z,12.87
2018-09-08T23:10:16.490Z,12.75
2018-09-08T23:12:45.071Z,12.64
2018-09-08T23:15:13.827Z,12.35
2018-09-08T23:17:42.390Z,12.57
2018-09-08T23:20:10.939Z,12.64
2018-09-08T23:22:40.484Z,12.65
2018-09-08T23:25:09.068Z,12.56
2018-09-08T23:27:37.810Z,12.66
2018-09-08T23:30:06.458Z,12.71
2018-09-08T23:32:37.200Z,12.81
2018-09-08T23:35:06.991Z,12.81
2018-09-08T23:37:35.550Z,12.81
2018-09-08T23:40:04.338Z,12.55
2018-09-08T23:42:33.486Z,12.74
2018-09-08T23:45:02.029Z,12.66
2018-09-08T23:47:30.568Z,12.58
2018-09-08T23:49:59.362Z,12.40
2018-09-08T23:52:27.935Z,12.58
2018-09-08T23:54:57.871Z,12.67
2018-09-08T23:57:26.440Z,12.65
2018-09-08T23:59:55.074Z,12.62
